VYA406 KDEN-KASE
Flight info
| Callsign | VYA406 |
|---|---|
| Flight time | 0h 47m |
| Altitude | 18000 |
| Route | ROCKI6 DBL |
| Aircraft | C208/L-SDFGR/C |
Departure
| Time | 2026-05-07 03:02 |
|---|---|
| Airport | Denver International Airport (KDEN) |
Arrival
| Time | 2026-05-07 03:50 |
|---|---|
| Airport | Aspen-Pitkin County Airport (Sardy Field) (KASE) |
| Time | Latitude | Longitude | Altitude | Speed | Heading |
|---|---|---|---|---|---|
| 2026-05-07 02:39 | 39.83935 | -104.66461 | 5408 ft | 0 kts | 112° |
| 2026-05-07 02:47 | 39.83935 | -104.66459 | 5407 ft | 0 kts | 111° |
| 2026-05-07 02:47 | 39.83944 | -104.66432 | 5418 ft | 9 kts | 52° |
| 2026-05-07 02:47 | 39.83989 | -104.66383 | 5419 ft | 10 kts | 47° |
| 2026-05-07 02:47 | 39.84029 | -104.66274 | 5421 ft | 12 kts | 44° |
| 2026-05-07 02:48 | 39.84106 | -104.66255 | 5417 ft | 12 kts | 360° |
| 2026-05-07 02:48 | 39.84210 | -104.66256 | 5413 ft | 18 kts | 1° |
| 2026-05-07 02:48 | 39.84359 | -104.66252 | 5418 ft | 23 kts | 2° |
| 2026-05-07 02:48 | 39.84486 | -104.66251 | 5415 ft | 15 kts | 0° |
| 2026-05-07 02:49 | 39.84594 | -104.66251 | 5414 ft | 19 kts | 358° |
| 2026-05-07 02:49 | 39.84737 | -104.66248 | 5398 ft | 19 kts | 3° |
| 2026-05-07 02:49 | 39.84845 | -104.66245 | 5399 ft | 12 kts | 359° |
| 2026-05-07 02:49 | 39.84948 | -104.66244 | 5404 ft | 18 kts | 0° |
| 2026-05-07 02:50 | 39.85092 | -104.66244 | 5401 ft | 17 kts | 0° |
| 2026-05-07 02:50 | 39.85138 | -104.66243 | 5400 ft | 0 kts | 5° |
| 2026-05-07 02:50 | 39.85140 | -104.66243 | 5400 ft | 3 kts | 4° |
| 2026-05-07 02:50 | 39.85202 | -104.66241 | 5395 ft | 14 kts | 360° |
| 2026-05-07 02:51 | 39.85314 | -104.66240 | 5394 ft | 15 kts | 0° |
| 2026-05-07 02:51 | 39.85432 | -104.66239 | 5398 ft | 15 kts | 359° |
| 2026-05-07 02:51 | 39.85507 | -104.66238 | 5397 ft | 4 kts | 1° |
| 2026-05-07 02:51 | 39.85508 | -104.66238 | 5397 ft | 0 kts | 2° |
| 2026-05-07 02:52 | 39.85535 | -104.66237 | 5392 ft | 6 kts | 0° |
| 2026-05-07 02:52 | 39.85597 | -104.66237 | 5396 ft | 13 kts | 1° |
| 2026-05-07 02:52 | 39.85716 | -104.66235 | 5395 ft | 21 kts | 1° |
| 2026-05-07 02:52 | 39.85863 | -104.66234 | 5393 ft | 20 kts | 360° |
| 2026-05-07 02:53 | 39.85989 | -104.66231 | 5389 ft | 17 kts | 0° |
| 2026-05-07 02:53 | 39.86098 | -104.66229 | 5387 ft | 15 kts | 359° |
| 2026-05-07 02:53 | 39.86193 | -104.66230 | 5384 ft | 14 kts | 1° |
| 2026-05-07 02:53 | 39.86314 | -104.66228 | 5379 ft | 16 kts | 1° |
| 2026-05-07 02:54 | 39.86408 | -104.66226 | 5379 ft | 12 kts | 1° |
| 2026-05-07 02:54 | 39.86499 | -104.66177 | 5376 ft | 17 kts | 84° |
| 2026-05-07 02:54 | 39.86499 | -104.66020 | 5378 ft | 22 kts | 89° |
| 2026-05-07 02:54 | 39.86498 | -104.65804 | 5378 ft | 19 kts | 90° |
| 2026-05-07 02:55 | 39.86496 | -104.65659 | 5375 ft | 19 kts | 91° |
| 2026-05-07 02:55 | 39.86494 | -104.65476 | 5373 ft | 18 kts | 89° |
| 2026-05-07 02:55 | 39.86493 | -104.65253 | 5364 ft | 33 kts | 93° |
| 2026-05-07 02:55 | 39.86492 | -104.65021 | 5358 ft | 19 kts | 89° |
| 2026-05-07 02:56 | 39.86494 | -104.64872 | 5351 ft | 18 kts | 92° |
| 2026-05-07 02:56 | 39.86489 | -104.64650 | 5340 ft | 29 kts | 91° |
| 2026-05-07 02:56 | 39.86488 | -104.64448 | 5334 ft | 19 kts | 90° |
| 2026-05-07 02:56 | 39.86487 | -104.64291 | 5332 ft | 8 kts | 90° |
| 2026-05-07 02:57 | 39.86487 | -104.64285 | 5332 ft | 1 kts | 90° |
| 2026-05-07 02:57 | 39.86486 | -104.64208 | 5331 ft | 15 kts | 91° |
| 2026-05-07 02:57 | 39.86470 | -104.64136 | 5332 ft | 8 kts | 157° |
| 2026-05-07 02:57 | 39.86451 | -104.64132 | 5331 ft | 0 kts | 179° |
| 2026-05-07 03:01 | 39.86343 | -104.64132 | 5335 ft | 38 kts | 180° |
| 2026-05-07 03:02 | 39.85927 | -104.64136 | 5361 ft | 76 kts | 178° |
| 2026-05-07 03:02 | 39.85376 | -104.64146 | 5556 ft | 81 kts | 180° |
| 2026-05-07 03:02 | 39.84788 | -104.64160 | 5763 ft | 89 kts | 180° |
| 2026-05-07 03:02 | 39.84166 | -104.64172 | 6091 ft | 91 kts | 190° |
| 2026-05-07 03:03 | 39.83656 | -104.64623 | 6425 ft | 96 kts | 237° |
| 2026-05-07 03:03 | 39.83523 | -104.65520 | 6678 ft | 104 kts | 253° |
| 2026-05-07 03:03 | 39.83357 | -104.66407 | 6995 ft | 101 kts | 252° |
| 2026-05-07 03:03 | 39.83174 | -104.67294 | 7272 ft | 102 kts | 251° |
| 2026-05-07 03:04 | 39.83036 | -104.68201 | 7531 ft | 102 kts | 258° |
| 2026-05-07 03:04 | 39.82907 | -104.69110 | 7831 ft | 103 kts | 259° |
| 2026-05-07 03:04 | 39.82784 | -104.70023 | 8115 ft | 103 kts | 261° |
| 2026-05-07 03:04 | 39.82658 | -104.70926 | 8400 ft | 103 kts | 262° |
| 2026-05-07 03:05 | 39.82530 | -104.71843 | 8692 ft | 102 kts | 263° |
| 2026-05-07 03:05 | 39.82401 | -104.72754 | 8964 ft | 102 kts | 264° |
| 2026-05-07 03:05 | 39.82275 | -104.73663 | 9248 ft | 102 kts | 265° |
| 2026-05-07 03:05 | 39.82149 | -104.74570 | 9540 ft | 102 kts | 266° |
| 2026-05-07 03:06 | 39.82021 | -104.75478 | 9797 ft | 102 kts | 267° |
| 2026-05-07 03:06 | 39.81894 | -104.76385 | 10072 ft | 102 kts | 268° |
| 2026-05-07 03:06 | 39.81768 | -104.77285 | 10305 ft | 103 kts | 268° |
| 2026-05-07 03:06 | 39.81639 | -104.78200 | 10544 ft | 103 kts | 269° |
| 2026-05-07 03:07 | 39.81510 | -104.79120 | 10777 ft | 104 kts | 269° |
| 2026-05-07 03:07 | 39.81378 | -104.80060 | 10978 ft | 107 kts | 269° |
| 2026-05-07 03:07 | 39.81243 | -104.81020 | 11217 ft | 108 kts | 269° |
| 2026-05-07 03:07 | 39.81107 | -104.81983 | 11438 ft | 108 kts | 269° |
| 2026-05-07 03:08 | 39.80971 | -104.82949 | 11669 ft | 109 kts | 270° |
| 2026-05-07 03:08 | 39.80834 | -104.83925 | 11905 ft | 110 kts | 270° |
| 2026-05-07 03:08 | 39.80695 | -104.84906 | 12139 ft | 111 kts | 270° |
| 2026-05-07 03:08 | 39.80556 | -104.85892 | 12373 ft | 111 kts | 271° |
| 2026-05-07 03:09 | 39.80417 | -104.86871 | 12606 ft | 112 kts | 271° |
| 2026-05-07 03:09 | 39.80277 | -104.87865 | 12838 ft | 112 kts | 271° |
| 2026-05-07 03:09 | 39.80135 | -104.88865 | 13066 ft | 113 kts | 271° |
| 2026-05-07 03:09 | 39.79992 | -104.89873 | 13292 ft | 113 kts | 272° |
| 2026-05-07 03:10 | 39.79849 | -104.90885 | 13528 ft | 114 kts | 272° |
| 2026-05-07 03:10 | 39.79706 | -104.91901 | 13757 ft | 115 kts | 272° |
| 2026-05-07 03:10 | 39.79560 | -104.92923 | 13977 ft | 115 kts | 272° |
| 2026-05-07 03:10 | 39.79415 | -104.93949 | 14178 ft | 116 kts | 272° |
| 2026-05-07 03:11 | 39.79268 | -104.94988 | 14392 ft | 117 kts | 272° |
| 2026-05-07 03:11 | 39.79119 | -104.96034 | 14585 ft | 118 kts | 272° |
| 2026-05-07 03:11 | 39.78968 | -104.97091 | 14783 ft | 119 kts | 272° |
| 2026-05-07 03:11 | 39.78819 | -104.98141 | 14967 ft | 120 kts | 272° |
| 2026-05-07 03:12 | 39.78666 | -104.99213 | 15158 ft | 121 kts | 273° |
| 2026-05-07 03:12 | 39.78512 | -105.00293 | 15342 ft | 122 kts | 273° |
| 2026-05-07 03:12 | 39.78356 | -105.01383 | 15526 ft | 123 kts | 272° |
| 2026-05-07 03:12 | 39.78199 | -105.02482 | 15714 ft | 124 kts | 273° |
| 2026-05-07 03:13 | 39.78042 | -105.03585 | 15909 ft | 125 kts | 273° |
| 2026-05-07 03:13 | 39.77883 | -105.04696 | 16102 ft | 125 kts | 273° |
| 2026-05-07 03:13 | 39.77723 | -105.05814 | 16296 ft | 126 kts | 273° |
| 2026-05-07 03:13 | 39.77562 | -105.06937 | 16499 ft | 127 kts | 273° |
| 2026-05-07 03:14 | 39.77402 | -105.08055 | 16685 ft | 128 kts | 273° |
| 2026-05-07 03:14 | 39.77238 | -105.09196 | 16886 ft | 129 kts | 273° |
| 2026-05-07 03:14 | 39.76909 | -105.11489 | 17276 ft | 130 kts | 273° |
| 2026-05-07 03:15 | 39.76743 | -105.12647 | 17471 ft | 131 kts | 273° |
| 2026-05-07 03:15 | 39.76575 | -105.13812 | 17656 ft | 131 kts | 273° |
| 2026-05-07 03:15 | 39.76407 | -105.14981 | 17845 ft | 132 kts | 274° |
| 2026-05-07 03:15 | 39.76237 | -105.16156 | 18014 ft | 135 kts | 274° |
| 2026-05-07 03:16 | 39.76063 | -105.17421 | 18029 ft | 148 kts | 272° |
| 2026-05-07 03:16 | 39.75871 | -105.18773 | 18019 ft | 160 kts | 271° |
| 2026-05-07 03:16 | 39.75659 | -105.20228 | 18014 ft | 167 kts | 271° |
| 2026-05-07 03:16 | 39.75439 | -105.21731 | 18019 ft | 171 kts | 270° |
| 2026-05-07 03:17 | 39.75215 | -105.23274 | 18015 ft | 175 kts | 270° |
| 2026-05-07 03:17 | 39.74988 | -105.24848 | 18011 ft | 180 kts | 270° |
| 2026-05-07 03:17 | 39.74752 | -105.26450 | 18012 ft | 180 kts | 270° |
| 2026-05-07 03:17 | 39.74517 | -105.28048 | 18009 ft | 179 kts | 270° |
| 2026-05-07 03:18 | 39.74287 | -105.29631 | 18010 ft | 178 kts | 270° |
| 2026-05-07 03:18 | 39.74061 | -105.31225 | 18009 ft | 181 kts | 270° |
| 2026-05-07 03:18 | 39.73819 | -105.32821 | 18003 ft | 179 kts | 270° |
| 2026-05-07 03:18 | 39.73590 | -105.34424 | 18003 ft | 181 kts | 270° |
| 2026-05-07 03:19 | 39.73361 | -105.36012 | 18008 ft | 182 kts | 270° |
| 2026-05-07 03:19 | 39.73124 | -105.37641 | 18005 ft | 185 kts | 270° |
| 2026-05-07 03:19 | 39.72882 | -105.39281 | 18003 ft | 185 kts | 270° |
| 2026-05-07 03:19 | 39.72643 | -105.40916 | 17998 ft | 183 kts | 270° |
| 2026-05-07 03:20 | 39.72405 | -105.42536 | 18009 ft | 184 kts | 270° |
| 2026-05-07 03:20 | 39.72164 | -105.44192 | 18005 ft | 188 kts | 269° |
| 2026-05-07 03:20 | 39.71916 | -105.45846 | 18002 ft | 185 kts | 270° |
| 2026-05-07 03:20 | 39.71676 | -105.47482 | 18003 ft | 184 kts | 270° |
| 2026-05-07 03:21 | 39.71439 | -105.49118 | 18000 ft | 184 kts | 270° |
| 2026-05-07 03:21 | 39.71203 | -105.50714 | 18001 ft | 182 kts | 270° |
| 2026-05-07 03:21 | 39.70964 | -105.52325 | 18001 ft | 181 kts | 270° |
| 2026-05-07 03:21 | 39.70727 | -105.53931 | 18000 ft | 181 kts | 270° |
| 2026-05-07 03:22 | 39.70491 | -105.55533 | 18007 ft | 180 kts | 270° |
| 2026-05-07 03:22 | 39.70255 | -105.57125 | 18006 ft | 179 kts | 270° |
| 2026-05-07 03:22 | 39.70021 | -105.58713 | 18013 ft | 178 kts | 270° |
| 2026-05-07 03:22 | 39.69786 | -105.60295 | 18017 ft | 179 kts | 270° |
| 2026-05-07 03:23 | 39.69551 | -105.61894 | 18006 ft | 180 kts | 270° |
| 2026-05-07 03:23 | 39.69315 | -105.63452 | 18007 ft | 172 kts | 270° |
| 2026-05-07 03:23 | 39.69092 | -105.64946 | 18013 ft | 170 kts | 271° |
| 2026-05-07 03:23 | 39.68867 | -105.66462 | 18010 ft | 172 kts | 269° |
| 2026-05-07 03:24 | 39.68545 | -105.67972 | 18015 ft | 173 kts | 268° |
| 2026-05-07 03:24 | 39.68261 | -105.69498 | 18024 ft | 176 kts | 268° |
| 2026-05-07 03:24 | 39.67967 | -105.71058 | 18031 ft | 179 kts | 267° |
| 2026-05-07 03:24 | 39.67656 | -105.72637 | 18037 ft | 182 kts | 267° |
| 2026-05-07 03:25 | 39.67339 | -105.74227 | 18028 ft | 181 kts | 267° |
| 2026-05-07 03:25 | 39.67026 | -105.75804 | 18031 ft | 180 kts | 267° |
| 2026-05-07 03:25 | 39.66714 | -105.77376 | 18024 ft | 179 kts | 266° |
| 2026-05-07 03:25 | 39.66407 | -105.78929 | 18032 ft | 177 kts | 267° |
| 2026-05-07 03:26 | 39.66100 | -105.80487 | 18044 ft | 181 kts | 266° |
| 2026-05-07 03:26 | 39.65786 | -105.82086 | 18045 ft | 184 kts | 266° |
| 2026-05-07 03:26 | 39.65471 | -105.83666 | 18034 ft | 182 kts | 266° |
| 2026-05-07 03:26 | 39.65157 | -105.85230 | 18040 ft | 177 kts | 267° |
| 2026-05-07 03:27 | 39.64852 | -105.86774 | 18036 ft | 177 kts | 267° |
| 2026-05-07 03:27 | 39.64543 | -105.88298 | 18039 ft | 171 kts | 268° |
| 2026-05-07 03:27 | 39.64249 | -105.89775 | 18043 ft | 170 kts | 268° |
| 2026-05-07 03:27 | 39.63959 | -105.91266 | 18037 ft | 170 kts | 267° |
| 2026-05-07 03:28 | 39.63663 | -105.92751 | 18045 ft | 170 kts | 268° |
| 2026-05-07 03:28 | 39.63365 | -105.94239 | 18042 ft | 170 kts | 267° |
| 2026-05-07 03:28 | 39.63068 | -105.95725 | 18035 ft | 170 kts | 267° |
| 2026-05-07 03:28 | 39.62774 | -105.97205 | 17998 ft | 171 kts | 268° |
| 2026-05-07 03:29 | 39.62478 | -105.98689 | 17954 ft | 172 kts | 267° |
| 2026-05-07 03:29 | 39.62178 | -106.00180 | 17954 ft | 170 kts | 267° |
| 2026-05-07 03:29 | 39.61882 | -106.01653 | 17954 ft | 169 kts | 267° |
| 2026-05-07 03:29 | 39.61588 | -106.03127 | 17958 ft | 170 kts | 267° |
| 2026-05-07 03:30 | 39.61291 | -106.04614 | 17955 ft | 171 kts | 267° |
| 2026-05-07 03:30 | 39.60992 | -106.06108 | 17959 ft | 172 kts | 267° |
| 2026-05-07 03:30 | 39.60691 | -106.07603 | 17955 ft | 171 kts | 267° |
| 2026-05-07 03:30 | 39.60390 | -106.09097 | 17958 ft | 171 kts | 267° |
| 2026-05-07 03:31 | 39.60090 | -106.10590 | 17954 ft | 171 kts | 267° |
| 2026-05-07 03:31 | 39.59790 | -106.12081 | 17956 ft | 171 kts | 267° |
| 2026-05-07 03:31 | 39.59491 | -106.13572 | 17958 ft | 171 kts | 267° |
| 2026-05-07 03:31 | 39.59192 | -106.15059 | 17958 ft | 171 kts | 267° |
| 2026-05-07 03:32 | 39.58893 | -106.16541 | 17953 ft | 172 kts | 267° |
| 2026-05-07 03:32 | 39.58590 | -106.18034 | 17944 ft | 170 kts | 267° |
| 2026-05-07 03:32 | 39.58291 | -106.19505 | 17947 ft | 168 kts | 267° |
| 2026-05-07 03:32 | 39.57997 | -106.20975 | 17950 ft | 169 kts | 267° |
| 2026-05-07 03:33 | 39.57698 | -106.22461 | 17945 ft | 172 kts | 267° |
| 2026-05-07 03:33 | 39.57395 | -106.23961 | 17944 ft | 173 kts | 267° |
| 2026-05-07 03:33 | 39.57089 | -106.25468 | 17959 ft | 174 kts | 266° |
| 2026-05-07 03:33 | 39.56780 | -106.26989 | 17949 ft | 175 kts | 266° |
| 2026-05-07 03:34 | 39.56467 | -106.28514 | 17949 ft | 173 kts | 266° |
| 2026-05-07 03:34 | 39.56267 | -106.29504 | 17952 ft | 170 kts | 267° |
| 2026-05-07 03:34 | 39.55965 | -106.30995 | 17962 ft | 173 kts | 267° |
| 2026-05-07 03:34 | 39.55663 | -106.32516 | 17949 ft | 174 kts | 266° |
| 2026-05-07 03:35 | 39.55251 | -106.34508 | 17955 ft | 171 kts | 267° |
| 2026-05-07 03:35 | 39.54947 | -106.36005 | 17952 ft | 172 kts | 267° |
| 2026-05-07 03:35 | 39.54644 | -106.37496 | 17952 ft | 171 kts | 267° |
| 2026-05-07 03:35 | 39.54338 | -106.38984 | 17954 ft | 170 kts | 266° |
| 2026-05-07 03:36 | 39.54137 | -106.39966 | 17965 ft | 171 kts | 267° |
| 2026-05-07 03:36 | 39.53836 | -106.41472 | 17960 ft | 174 kts | 266° |
| 2026-05-07 03:36 | 39.53527 | -106.42985 | 17966 ft | 174 kts | 266° |
| 2026-05-07 03:36 | 39.53213 | -106.44524 | 17962 ft | 178 kts | 266° |
| 2026-05-07 03:37 | 39.52897 | -106.46079 | 17844 ft | 181 kts | 265° |
| 2026-05-07 03:37 | 39.52459 | -106.48205 | 17532 ft | 186 kts | 264° |
| 2026-05-07 03:37 | 39.52232 | -106.49304 | 17379 ft | 188 kts | 265° |
| 2026-05-07 03:37 | 39.51897 | -106.50942 | 17148 ft | 189 kts | 265° |
| 2026-05-07 03:38 | 39.51557 | -106.52614 | 16931 ft | 195 kts | 264° |
| 2026-05-07 03:38 | 39.51210 | -106.54296 | 16712 ft | 197 kts | 263° |
| 2026-05-07 03:38 | 39.50853 | -106.56028 | 16479 ft | 200 kts | 263° |
| 2026-05-07 03:38 | 39.50498 | -106.57747 | 16266 ft | 197 kts | 263° |
| 2026-05-07 03:39 | 39.50146 | -106.59461 | 16034 ft | 196 kts | 263° |
| 2026-05-07 03:39 | 39.49790 | -106.61179 | 15789 ft | 199 kts | 263° |
| 2026-05-07 03:39 | 39.49436 | -106.62923 | 15578 ft | 201 kts | 262° |
| 2026-05-07 03:39 | 39.49070 | -106.64670 | 15358 ft | 200 kts | 262° |
| 2026-05-07 03:40 | 39.48712 | -106.66404 | 15141 ft | 199 kts | 262° |
| 2026-05-07 03:40 | 39.48356 | -106.68136 | 14973 ft | 197 kts | 262° |
| 2026-05-07 03:40 | 39.48010 | -106.69785 | 14975 ft | 188 kts | 262° |
| 2026-05-07 03:40 | 39.47677 | -106.71403 | 14964 ft | 185 kts | 262° |
| 2026-05-07 03:41 | 39.47347 | -106.72997 | 14971 ft | 181 kts | 262° |
| 2026-05-07 03:41 | 39.47022 | -106.74563 | 14965 ft | 179 kts | 262° |
| 2026-05-07 03:41 | 39.46699 | -106.76121 | 14867 ft | 183 kts | 262° |
| 2026-05-07 03:41 | 39.46369 | -106.77738 | 14685 ft | 189 kts | 262° |
| 2026-05-07 03:42 | 39.46026 | -106.79398 | 14491 ft | 192 kts | 261° |
| 2026-05-07 03:42 | 39.45674 | -106.81084 | 14309 ft | 195 kts | 261° |
| 2026-05-07 03:42 | 39.45318 | -106.82784 | 14127 ft | 197 kts | 261° |
| 2026-05-07 03:42 | 39.44962 | -106.84497 | 13974 ft | 197 kts | 260° |
| 2026-05-07 03:43 | 39.44607 | -106.86175 | 13973 ft | 190 kts | 260° |
| 2026-05-07 03:43 | 39.44191 | -106.87767 | 14009 ft | 191 kts | 247° |
| 2026-05-07 03:43 | 39.43268 | -106.89048 | 13839 ft | 202 kts | 216° |
| 2026-05-07 03:43 | 39.41912 | -106.89602 | 13638 ft | 208 kts | 184° |
| 2026-05-07 03:44 | 39.40542 | -106.89283 | 13465 ft | 197 kts | 160° |
| 2026-05-07 03:44 | 39.39224 | -106.88856 | 13278 ft | 195 kts | 172° |
| 2026-05-07 03:44 | 39.37892 | -106.88690 | 13093 ft | 190 kts | 177° |
| 2026-05-07 03:44 | 39.36571 | -106.88557 | 12886 ft | 192 kts | 176° |
| 2026-05-07 03:45 | 39.35237 | -106.88396 | 12660 ft | 193 kts | 175° |
| 2026-05-07 03:45 | 39.33919 | -106.88235 | 12459 ft | 183 kts | 175° |
| 2026-05-07 03:45 | 39.32723 | -106.88085 | 12254 ft | 170 kts | 175° |
| 2026-05-07 03:45 | 39.31566 | -106.87950 | 12041 ft | 165 kts | 176° |
| 2026-05-07 03:46 | 39.30430 | -106.87812 | 11821 ft | 163 kts | 175° |
| 2026-05-07 03:46 | 39.29307 | -106.87670 | 11591 ft | 161 kts | 175° |
| 2026-05-07 03:46 | 39.28197 | -106.87535 | 11368 ft | 159 kts | 175° |
| 2026-05-07 03:46 | 39.27127 | -106.87241 | 11145 ft | 157 kts | 160° |
| 2026-05-07 03:47 | 39.26107 | -106.86759 | 10926 ft | 156 kts | 160° |
| 2026-05-07 03:47 | 39.25103 | -106.86256 | 10704 ft | 154 kts | 156° |
| 2026-05-07 03:47 | 39.24119 | -106.85691 | 10468 ft | 155 kts | 156° |
| 2026-05-07 03:47 | 39.23180 | -106.85150 | 10260 ft | 140 kts | 156° |
| 2026-05-07 03:48 | 39.22311 | -106.84643 | 10029 ft | 135 kts | 154° |
| 2026-05-07 03:48 | 39.21460 | -106.84100 | 9787 ft | 137 kts | 152° |
| 2026-05-07 03:48 | 39.20606 | -106.83643 | 9589 ft | 130 kts | 175° |
| 2026-05-07 03:48 | 39.19856 | -106.84109 | 9353 ft | 123 kts | 239° |
| 2026-05-07 03:49 | 39.19787 | -106.85163 | 8963 ft | 126 kts | 299° |
| 2026-05-07 03:49 | 39.20381 | -106.85923 | 8452 ft | 108 kts | 327° |
| 2026-05-07 03:49 | 39.21021 | -106.86269 | 7996 ft | 93 kts | 341° |
| 2026-05-07 03:49 | 39.21571 | -106.86529 | 7827 ft | 73 kts | 339° |
| 2026-05-07 03:50 | 39.21967 | -106.86718 | 7779 ft | 42 kts | 340° |
| 2026-05-07 03:50 | 39.22154 | -106.86806 | 7763 ft | 22 kts | 338° |
| 2026-05-07 03:50 | 39.22307 | -106.86850 | 7757 ft | 16 kts | 22° |
| 2026-05-07 03:50 | 39.22282 | -106.86749 | 7762 ft | 25 kts | 159° |
| 2026-05-07 03:51 | 39.22236 | -106.86646 | 7768 ft | 11 kts | 72° |
| 2026-05-07 03:51 | 39.22251 | -106.86589 | 7768 ft | 0 kts | 72° |